createdAt,value
2018-12-18T00:00:30.945Z,2.30
2018-12-18T00:02:59.065Z,2.30
2018-12-18T00:05:32.544Z,2.30
2018-12-18T00:08:00.664Z,2.30
2018-12-18T00:10:34.316Z,2.20
2018-12-18T00:13:02.489Z,2.20
2018-12-18T00:15:30.613Z,2.20
2018-12-18T00:17:58.720Z,2.30
2018-12-18T00:20:26.904Z,2.20
2018-12-18T00:22:55.070Z,2.20
2018-12-18T00:25:23.184Z,2.10
2018-12-18T00:27:51.312Z,2.10
2018-12-18T00:30:19.470Z,2.30
2018-12-18T00:32:47.629Z,2.50
2018-12-18T00:35:15.856Z,2.70
2018-12-18T00:37:44.020Z,2.50
2018-12-18T00:40:12.140Z,2.30
2018-12-18T00:42:40.280Z,2.40
2018-12-18T00:45:08.448Z,2.40
2018-12-18T00:47:36.608Z,2.30
2018-12-18T00:50:04.732Z,2.30
2018-12-18T00:52:32.885Z,2.50
2018-12-18T00:55:00.988Z,2.40
2018-12-18T00:57:29.181Z,2.40
2018-12-18T00:59:57.347Z,2.50
2018-12-18T01:02:25.479Z,2.50
2018-12-18T01:04:53.710Z,2.50
2018-12-18T01:07:21.872Z,2.40
2018-12-18T01:09:50.032Z,2.40
2018-12-18T01:12:18.205Z,2.40
2018-12-18T01:14:46.319Z,2.40
2018-12-18T01:17:14.471Z,2.40
2018-12-18T01:19:42.580Z,2.50
2018-12-18T01:22:10.733Z,2.50
2018-12-18T01:24:38.973Z,2.50
2018-12-18T01:27:07.101Z,2.50
2018-12-18T01:29:35.232Z,2.50
2018-12-18T01:32:03.557Z,2.40
2018-12-18T01:34:31.684Z,2.40
2018-12-18T01:36:59.812Z,2.40
2018-12-18T01:39:28.247Z,2.40
2018-12-18T01:41:56.372Z,2.40
2018-12-18T01:44:24.485Z,2.50
2018-12-18T01:46:52.640Z,2.50
2018-12-18T01:49:20.760Z,2.50
2018-12-18T01:51:48.954Z,2.50
2018-12-18T01:54:17.116Z,2.50
2018-12-18T01:56:45.223Z,2.50
2018-12-18T01:59:13.391Z,2.50
2018-12-18T02:01:41.645Z,2.40
2018-12-18T02:04:09.748Z,2.60
2018-12-18T02:06:37.883Z,2.60
2018-12-18T02:09:07.386Z,2.50
2018-12-18T02:11:35.547Z,2.40
2018-12-18T02:14:03.708Z,2.40
2018-12-18T02:16:31.883Z,2.50
2018-12-18T02:19:00.004Z,2.50
2018-12-18T02:21:28.111Z,2.50
2018-12-18T02:23:56.363Z,2.40
2018-12-18T02:26:24.604Z,2.40
2018-12-18T02:28:52.723Z,2.40
2018-12-18T02:31:20.897Z,2.30
2018-12-18T02:33:49.021Z,2.40
2018-12-18T02:36:17.148Z,2.50
2018-12-18T02:38:45.328Z,2.50
2018-12-18T02:41:13.457Z,2.50
2018-12-18T02:43:41.602Z,2.50
2018-12-18T02:46:09.676Z,2.40
2018-12-18T02:51:20.205Z,2.50
2018-12-18T02:53:48.311Z,2.40
2018-12-18T02:56:16.416Z,2.50
2018-12-18T02:58:45.201Z,2.40
2018-12-18T03:01:13.301Z,2.50
2018-12-18T03:03:41.388Z,2.40
2018-12-18T03:06:09.528Z,2.40
2018-12-18T03:08:37.623Z,2.40
2018-12-18T03:11:05.715Z,2.40
2018-12-18T03:13:33.954Z,2.40
2018-12-18T03:16:02.051Z,2.50
2018-12-18T03:18:30.132Z,2.50
2018-12-18T03:20:58.306Z,2.50
2018-12-18T03:23:26.409Z,2.60
2018-12-18T03:25:54.500Z,2.60
2018-12-18T03:28:22.779Z,2.70
2018-12-18T03:30:50.868Z,2.70
2018-12-18T03:33:19.056Z,2.80
2018-12-18T03:35:47.213Z,2.90
2018-12-18T03:38:15.311Z,2.90
2018-12-18T03:40:43.402Z,2.90
2018-12-18T03:43:11.543Z,2.90
2018-12-18T03:45:39.674Z,2.90
2018-12-18T03:48:07.772Z,3.00
2018-12-18T03:50:36.072Z,2.90
2018-12-18T03:53:04.165Z,2.90
2018-12-18T03:55:32.256Z,3.00
2018-12-18T03:58:00.632Z,3.00
2018-12-18T04:00:28.725Z,3.00
2018-12-18T04:02:56.823Z,3.00
2018-12-18T04:05:24.967Z,3.00
2018-12-18T04:07:53.020Z,2.90
2018-12-18T04:10:21.113Z,3.10
2018-12-18T04:12:49.243Z,3.00
2018-12-18T04:15:17.433Z,3.00
2018-12-18T04:17:45.524Z,3.00
2018-12-18T04:20:13.661Z,3.00
2018-12-18T04:22:41.756Z,3.00
2018-12-18T04:25:10.076Z,3.00
2018-12-18T04:27:38.176Z,3.10
2018-12-18T04:30:07.071Z,3.10
2018-12-18T04:32:35.365Z,3.20
2018-12-18T04:35:03.712Z,3.20
2018-12-18T04:37:31.807Z,3.30
2018-12-18T04:40:00.088Z,3.20
2018-12-18T04:42:28.221Z,3.20
2018-12-18T04:44:56.298Z,3.10
2018-12-18T04:47:24.475Z,3.10
2018-12-18T04:49:52.567Z,3.10
2018-12-18T04:52:20.700Z,3.10
2018-12-18T04:54:48.842Z,3.10
2018-12-18T04:57:16.932Z,3.10
2018-12-18T04:59:45.031Z,3.10
2018-12-18T05:02:13.255Z,3.10
2018-12-18T05:04:41.393Z,3.10
2018-12-18T05:07:09.499Z,3.10
2018-12-18T05:09:37.641Z,3.20
2018-12-18T05:12:05.736Z,3.20
2018-12-18T05:14:33.929Z,3.20
2018-12-18T05:17:02.110Z,3.20
2018-12-18T05:19:30.309Z,3.20
2018-12-18T05:21:58.469Z,3.20
2018-12-18T05:24:26.603Z,3.30
2018-12-18T05:26:54.697Z,3.30
2018-12-18T05:29:22.868Z,3.30
2018-12-18T05:31:51.012Z,3.30
2018-12-18T05:34:19.108Z,3.40
2018-12-18T05:36:47.212Z,3.40
2018-12-18T05:39:15.461Z,3.40
2018-12-18T05:41:43.547Z,3.50
2018-12-18T05:44:11.644Z,3.40
2018-12-18T05:46:39.791Z,3.50
2018-12-18T05:49:07.883Z,3.50
2018-12-18T05:51:35.968Z,3.50
2018-12-18T05:54:04.124Z,3.50
2018-12-18T05:56:32.217Z,3.50
2018-12-18T05:59:00.301Z,3.60
2018-12-18T06:01:28.451Z,3.50
2018-12-18T06:03:56.551Z,3.60
2018-12-18T06:06:24.647Z,3.70
2018-12-18T06:08:52.781Z,3.70
2018-12-18T06:11:20.877Z,3.60
2018-12-18T06:13:48.972Z,3.70
2018-12-18T06:16:17.099Z,3.70
2018-12-18T06:18:45.388Z,3.70
2018-12-18T06:21:13.487Z,3.70
2018-12-18T06:23:41.592Z,3.60
2018-12-18T06:26:09.742Z,3.70
2018-12-18T06:28:37.825Z,3.70
2018-12-18T06:31:05.927Z,3.60
2018-12-18T06:33:34.117Z,3.60
2018-12-18T06:36:02.199Z,3.60
2018-12-18T06:38:30.328Z,3.60
2018-12-18T06:40:58.459Z,3.60
2018-12-18T06:43:26.558Z,3.70
2018-12-18T06:45:54.694Z,3.70
2018-12-18T06:48:22.836Z,3.70
2018-12-18T06:50:50.932Z,3.80
2018-12-18T06:53:19.015Z,3.70
2018-12-18T06:55:47.188Z,3.70
2018-12-18T06:58:15.276Z,3.70
2018-12-18T07:00:43.513Z,3.70
2018-12-18T07:03:11.660Z,3.70
2018-12-18T07:05:39.752Z,3.70
2018-12-18T07:08:07.839Z,3.70
2018-12-18T07:10:35.971Z,3.70
2018-12-18T07:13:04.115Z,3.70
2018-12-18T07:15:32.871Z,3.70
2018-12-18T07:18:00.963Z,3.70
2018-12-18T07:20:29.141Z,3.60
2018-12-18T07:22:57.272Z,3.60
2018-12-18T07:25:25.364Z,3.60
2018-12-18T07:27:53.496Z,3.70
2018-12-18T07:30:22.441Z,3.80
2018-12-18T07:32:50.532Z,3.80
2018-12-18T07:35:23.209Z,4.00
2018-12-18T07:37:48.768Z,4.00
2018-12-18T07:40:16.910Z,4.00
2018-12-18T07:42:45.013Z,4.00
2018-12-18T07:45:13.244Z,4.10
2018-12-18T07:47:41.357Z,4.20
2018-12-18T07:50:09.440Z,4.10
2018-12-18T07:52:37.723Z,4.10
2018-12-18T07:55:05.885Z,4.10
2018-12-18T07:57:34.030Z,4.10
2018-12-18T08:00:02.228Z,4.10
2018-12-18T08:02:30.320Z,4.10
2018-12-18T08:04:58.417Z,4.10
2018-12-18T08:07:26.552Z,4.20
2018-12-18T08:09:54.636Z,4.10
2018-12-18T08:12:25.901Z,4.10
2018-12-18T08:14:53.987Z,4.20
2018-12-18T08:17:22.085Z,4.20
2018-12-18T08:19:50.216Z,4.20
2018-12-18T08:22:18.356Z,4.20
2018-12-18T08:24:46.655Z,4.20
2018-12-18T08:27:14.752Z,4.20
2018-12-18T08:29:42.897Z,4.20
2018-12-18T08:32:10.996Z,4.30
2018-12-18T08:34:39.088Z,4.30
2018-12-18T08:37:07.343Z,4.40
2018-12-18T08:39:35.432Z,4.30
2018-12-18T08:42:03.612Z,4.30
2018-12-18T08:44:31.744Z,4.30
2018-12-18T08:46:59.823Z,4.30
2018-12-18T08:49:27.920Z,4.40
2018-12-18T08:51:56.064Z,4.40
2018-12-18T08:54:24.156Z,4.50
2018-12-18T08:56:52.283Z,4.50
2018-12-18T08:59:20.444Z,4.50
2018-12-18T09:01:48.580Z,4.50
2018-12-18T09:04:16.725Z,4.50
2018-12-18T09:06:44.976Z,4.50
2018-12-18T09:09:13.228Z,4.50
2018-12-18T09:11:41.314Z,4.60
2018-12-18T09:14:09.470Z,4.60
2018-12-18T09:16:43.048Z,4.50
2018-12-18T09:19:11.160Z,4.50
2018-12-18T09:21:39.289Z,4.60
2018-12-18T09:24:07.475Z,4.60
2018-12-18T09:26:35.659Z,4.60
2018-12-18T09:29:03.914Z,4.70
2018-12-18T09:31:32.076Z,4.80
2018-12-18T09:34:00.183Z,4.70
2018-12-18T09:36:28.294Z,4.70
2018-12-18T09:39:01.885Z,4.80
2018-12-18T09:41:35.503Z,4.80
2018-12-18T09:44:08.016Z,4.90
2018-12-18T09:46:36.179Z,4.90
2018-12-18T09:49:04.307Z,5.00
2018-12-18T09:51:32.456Z,5.00
2018-12-18T09:54:00.643Z,5.10
2018-12-18T09:56:28.752Z,5.00
2018-12-18T09:58:56.876Z,5.10
2018-12-18T10:01:25.273Z,5.10
2018-12-18T10:03:53.369Z,5.10
2018-12-18T10:06:21.496Z,5.10
2018-12-18T10:08:49.710Z,5.10
2018-12-18T10:11:17.860Z,5.20
2018-12-18T10:13:45.934Z,5.20
2018-12-18T10:16:14.081Z,5.20
2018-12-18T10:18:42.341Z,5.30
2018-12-18T10:21:10.477Z,5.30
2018-12-18T10:23:38.630Z,5.40
2018-12-18T10:26:06.738Z,5.50
2018-12-18T10:28:34.860Z,5.40
2018-12-18T10:31:03.046Z,5.40
2018-12-18T10:33:31.109Z,5.40
2018-12-18T10:36:03.027Z,5.40
2018-12-18T10:38:29.364Z,5.40
2018-12-18T10:40:57.445Z,5.50
2018-12-18T10:43:25.620Z,5.50
2018-12-18T10:45:53.799Z,5.50
2018-12-18T10:48:21.925Z,5.50
2018-12-18T10:50:50.045Z,5.60
2018-12-18T10:53:18.252Z,5.50
2018-12-18T10:55:46.383Z,5.60
2018-12-18T10:58:14.508Z,5.70
2018-12-18T11:00:48.268Z,5.70
2018-12-18T11:03:16.452Z,5.70
2018-12-18T11:05:44.592Z,5.70
2018-12-18T11:08:12.784Z,5.70
2018-12-18T11:10:40.933Z,5.80
2018-12-18T11:13:14.499Z,5.70
2018-12-18T11:15:42.635Z,5.80
2018-12-18T11:18:10.785Z,5.80
2018-12-18T11:20:38.960Z,5.90
2018-12-18T11:23:07.089Z,5.90
2018-12-18T11:25:35.264Z,5.80
2018-12-18T11:28:03.458Z,5.80
2018-12-18T11:30:31.590Z,5.80
2018-12-18T11:32:59.725Z,5.80
2018-12-18T11:35:27.875Z,6.00
2018-12-18T11:37:56.021Z,5.90
2018-12-18T11:40:24.230Z,6.00
2018-12-18T11:42:52.339Z,5.90
2018-12-18T11:45:20.481Z,5.90
2018-12-18T11:47:48.652Z,6.00
2018-12-18T11:50:16.772Z,6.00
2018-12-18T11:52:44.905Z,6.10
2018-12-18T11:55:13.145Z,6.20
2018-12-18T11:57:41.276Z,6.10
2018-12-18T12:00:11.832Z,6.10
2018-12-18T12:02:42.786Z,6.10
2018-12-18T12:05:10.305Z,6.10
2018-12-18T12:07:38.449Z,6.10
2018-12-18T12:10:06.651Z,6.20
2018-12-18T12:12:34.871Z,6.30
2018-12-18T12:15:03.042Z,6.30
2018-12-18T12:17:31.643Z,6.30
2018-12-18T12:19:59.819Z,6.60
2018-12-18T12:22:27.935Z,6.80
2018-12-18T12:24:56.112Z,6.80
2018-12-18T12:27:29.872Z,6.90
2018-12-18T12:29:58.047Z,7.10
2018-12-18T12:32:26.180Z,7.20
2018-12-18T12:34:54.307Z,7.20
2018-12-18T12:37:22.477Z,7.40
2018-12-18T12:39:50.612Z,7.70
2018-12-18T12:42:18.756Z,7.80
2018-12-18T12:44:46.904Z,7.80
2018-12-18T12:47:15.037Z,7.90
2018-12-18T12:49:44.274Z,8.00
2018-12-18T12:52:12.442Z,8.10
2018-12-18T12:54:40.573Z,8.10
2018-12-18T12:57:08.675Z,8.30
2018-12-18T12:59:37.013Z,8.40
2018-12-18T13:02:05.225Z,8.40
2018-12-18T13:04:33.348Z,8.50
2018-12-18T13:07:01.542Z,8.60
2018-12-18T13:09:29.688Z,8.50
2018-12-18T13:11:57.840Z,8.40
2018-12-18T13:14:26.010Z,8.40
2018-12-18T13:16:54.132Z,8.40
2018-12-18T13:19:22.259Z,8.30
2018-12-18T13:21:50.420Z,8.30
2018-12-18T13:24:18.565Z,8.30
2018-12-18T13:26:46.712Z,8.30
2018-12-18T13:29:15.025Z,8.30
2018-12-18T13:31:43.204Z,8.30
2018-12-18T13:34:11.348Z,8.20
2018-12-18T13:36:43.014Z,8.20
2018-12-18T13:39:09.697Z,8.20
2018-12-18T13:41:37.839Z,7.90
2018-12-18T13:44:06.177Z,7.70
2018-12-18T13:46:34.251Z,7.70
2018-12-18T13:49:02.413Z,7.50
2018-12-18T13:51:30.587Z,7.30
2018-12-18T13:53:58.700Z,7.00
2018-12-18T13:56:26.833Z,6.90
2018-12-18T13:58:55.007Z,6.80
2018-12-18T14:01:23.180Z,6.70
2018-12-18T14:03:51.300Z,6.70
2018-12-18T14:06:19.834Z,6.70
2018-12-18T14:11:27.169Z,6.60
2018-12-18T14:13:55.294Z,6.30
2018-12-18T14:16:23.412Z,6.20
2018-12-18T14:18:51.558Z,6.10
2018-12-18T14:21:19.671Z,6.10
2018-12-18T14:23:47.784Z,6.00
2018-12-18T14:26:15.943Z,5.90
2018-12-18T14:28:44.152Z,5.80
2018-12-18T14:31:12.288Z,5.70
2018-12-18T14:33:40.424Z,5.70
2018-12-18T14:36:08.816Z,5.70
2018-12-18T14:38:36.928Z,5.70
2018-12-18T14:41:05.199Z,5.60
2018-12-18T14:43:33.306Z,5.50
2018-12-18T14:46:01.440Z,5.30
2018-12-18T14:48:29.756Z,5.20
2018-12-18T14:50:57.884Z,5.30
2018-12-18T14:53:25.987Z,5.10
2018-12-18T14:55:54.295Z,5.00
2018-12-18T14:58:22.421Z,4.80
2018-12-18T15:00:50.538Z,4.60
2018-12-18T15:03:18.761Z,4.50
2018-12-18T15:05:46.897Z,4.40
2018-12-18T15:08:15.032Z,4.40
2018-12-18T15:10:43.176Z,4.20
2018-12-18T15:13:11.278Z,4.00
2018-12-18T15:15:39.448Z,4.00
2018-12-18T15:18:07.552Z,3.80
2018-12-18T15:20:35.660Z,3.70
2018-12-18T15:23:03.876Z,3.60
2018-12-18T15:25:32.112Z,3.60
2018-12-18T15:28:00.280Z,3.70
2018-12-18T15:30:34.989Z,3.70
2018-12-18T15:33:03.111Z,3.70
2018-12-18T15:35:31.296Z,3.70
2018-12-18T15:37:59.504Z,3.70
2018-12-18T15:40:27.919Z,3.50
2018-12-18T15:42:56.116Z,3.50
2018-12-18T15:45:24.305Z,3.60
2018-12-18T15:47:52.544Z,3.70
2018-12-18T15:50:20.659Z,3.60
2018-12-18T15:52:48.836Z,3.50
2018-12-18T15:55:16.956Z,3.60
2018-12-18T15:57:45.072Z,3.70
2018-12-18T16:00:13.418Z,3.70
2018-12-18T16:02:41.612Z,3.70
2018-12-18T16:05:09.732Z,3.40
2018-12-18T16:07:37.883Z,3.10
2018-12-18T16:10:06.554Z,3.00
2018-12-18T16:12:34.897Z,2.90
2018-12-18T16:15:03.218Z,2.90
2018-12-18T16:17:31.436Z,3.00
2018-12-18T16:19:59.628Z,3.00
2018-12-18T16:25:19.404Z,2.90
2018-12-18T16:27:47.536Z,2.80
2018-12-18T16:30:25.011Z,2.80
2018-12-18T16:32:53.180Z,2.90
2018-12-18T16:35:21.318Z,3.00
2018-12-18T16:37:50.608Z,2.90
2018-12-18T16:40:18.728Z,2.90
2018-12-18T16:42:46.842Z,2.90
2018-12-18T16:45:15.229Z,2.90
2018-12-18T16:47:53.180Z,3.00
2018-12-18T16:50:21.360Z,3.00
2018-12-18T16:52:49.524Z,3.00
2018-12-18T16:55:17.623Z,3.00
2018-12-18T16:57:45.769Z,3.00
2018-12-18T17:00:29.615Z,3.10
2018-12-18T17:02:57.702Z,3.10
2018-12-18T17:05:25.819Z,3.20
2018-12-18T17:07:54.036Z,3.10
2018-12-18T17:10:22.148Z,3.10
2018-12-18T17:12:57.507Z,3.10
2018-12-18T17:18:16.692Z,3.20
2018-12-18T17:23:35.652Z,3.10
2018-12-18T17:26:03.831Z,3.00
2018-12-18T17:28:32.056Z,3.00
2018-12-18T17:31:00.128Z,3.00
2018-12-18T17:33:28.336Z,3.10
2018-12-18T17:35:56.757Z,3.10
2018-12-18T17:38:25.675Z,3.10
2018-12-18T17:41:13.195Z,3.10
2018-12-18T17:46:33.528Z,3.00
2018-12-18T17:52:00.187Z,3.00
2018-12-18T17:54:34.347Z,3.00
2018-12-18T17:59:53.424Z,2.80
2018-12-18T18:02:21.713Z,2.80
2018-12-18T18:05:06.881Z,2.70
2018-12-18T18:07:43.253Z,2.70
2018-12-18T18:10:11.928Z,2.60
2018-12-18T18:12:40.368Z,2.50
2018-12-18T18:15:08.492Z,2.60
2018-12-18T18:17:36.676Z,2.70
2018-12-18T18:20:05.609Z,2.80
2018-12-18T18:22:34.304Z,2.50
2018-12-18T18:25:02.512Z,2.40
2018-12-18T18:27:38.680Z,2.30
2018-12-18T18:30:07.225Z,2.30
2018-12-18T18:32:35.356Z,2.30
2018-12-18T18:35:05.201Z,2.40
2018-12-18T18:37:33.344Z,2.40
2018-12-18T18:40:01.952Z,2.40
2018-12-18T18:42:30.313Z,2.40
2018-12-18T18:44:58.464Z,2.50
2018-12-18T18:47:26.639Z,2.40
2018-12-18T18:49:54.820Z,2.50
2018-12-18T18:52:23.012Z,2.40
2018-12-18T18:55:01.995Z,2.40
2018-12-18T18:57:44.594Z,2.50
2018-12-18T19:03:15.523Z,2.40
2018-12-18T19:05:47.779Z,2.50
2018-12-18T19:11:08.804Z,2.60
2018-12-18T19:16:34.388Z,2.50
2018-12-18T19:19:02.536Z,2.50
2018-12-18T19:21:34.012Z,2.50
2018-12-18T19:24:02.187Z,2.50
2018-12-18T19:26:32.492Z,2.40
2018-12-18T19:29:00.763Z,2.30
2018-12-18T19:31:28.929Z,2.30
2018-12-18T19:33:57.065Z,2.30
2018-12-18T19:36:42.923Z,2.50
2018-12-18T19:39:11.055Z,2.50
2018-12-18T19:41:39.247Z,2.50
2018-12-18T19:44:07.725Z,2.50
2018-12-18T19:46:35.872Z,2.50
2018-12-18T19:49:04.012Z,2.50
2018-12-18T19:51:32.184Z,2.50
2018-12-18T19:54:00.364Z,2.50
2018-12-18T19:56:28.494Z,2.50
2018-12-18T19:58:56.618Z,2.50
2018-12-18T20:01:24.877Z,2.40
2018-12-18T20:03:52.996Z,2.40
2018-12-18T20:06:21.122Z,2.40
2018-12-18T20:08:49.468Z,2.40
2018-12-18T20:11:17.602Z,2.40
2018-12-18T20:13:45.781Z,2.30
2018-12-18T20:16:13.946Z,2.40
2018-12-18T20:18:42.092Z,2.40
2018-12-18T20:21:10.212Z,2.40
2018-12-18T20:23:38.309Z,2.40
2018-12-18T20:26:07.882Z,2.40
2018-12-18T20:28:36.021Z,2.40
2018-12-18T20:31:04.334Z,2.40
2018-12-18T20:33:32.440Z,2.40
2018-12-18T20:36:00.544Z,2.50
2018-12-18T20:38:28.872Z,2.50
2018-12-18T20:40:57.011Z,2.50
2018-12-18T20:43:25.147Z,2.40
2018-12-18T20:45:53.399Z,2.40
2018-12-18T20:48:21.556Z,2.40
2018-12-18T20:50:49.889Z,2.40
2018-12-18T20:53:18.073Z,2.40
2018-12-18T20:55:46.236Z,2.30
2018-12-18T20:58:14.580Z,2.40
2018-12-18T21:00:42.746Z,2.30
2018-12-18T21:03:10.895Z,2.20
2018-12-18T21:05:39.392Z,2.20
2018-12-18T21:08:07.669Z,2.10
2018-12-18T21:10:35.960Z,2.20
2018-12-18T21:13:09.515Z,2.20
2018-12-18T21:15:37.863Z,2.30
2018-12-18T21:18:06.191Z,2.20
2018-12-18T21:20:34.719Z,2.20
2018-12-18T21:23:03.030Z,2.20
2018-12-18T21:25:31.321Z,2.20
2018-12-18T21:27:59.813Z,2.30
2018-12-18T21:30:29.156Z,2.20
2018-12-18T21:32:57.499Z,2.20
2018-12-18T21:35:26.045Z,2.20
2018-12-18T21:37:55.229Z,2.20
2018-12-18T21:40:24.438Z,2.20
2018-12-18T21:42:52.959Z,2.30
2018-12-18T21:45:21.732Z,2.30
2018-12-18T21:47:50.024Z,2.20
2018-12-18T21:50:18.402Z,2.20
2018-12-18T21:52:46.706Z,2.30
2018-12-18T21:55:15.044Z,2.20
2018-12-18T21:57:43.403Z,2.30
2018-12-18T22:00:13.344Z,2.20
2018-12-18T22:02:41.652Z,2.30
2018-12-18T22:05:10.088Z,2.30
2018-12-18T22:07:38.403Z,2.20
2018-12-18T22:10:07.717Z,2.20
2018-12-18T22:12:36.062Z,2.10
2018-12-18T22:15:04.868Z,2.10
2018-12-18T22:17:33.145Z,1.90
2018-12-18T22:20:01.489Z,1.90
2018-12-18T22:22:29.796Z,1.90
2018-12-18T22:24:58.051Z,1.90
2018-12-18T22:27:26.224Z,2.00
2018-12-18T22:29:54.360Z,1.90
2018-12-18T22:32:22.476Z,1.90
2018-12-18T22:34:50.637Z,1.90
2018-12-18T22:37:18.792Z,1.90
2018-12-18T22:39:46.892Z,2.00
2018-12-18T22:42:15.239Z,1.90
2018-12-18T22:44:43.485Z,2.00
2018-12-18T22:47:11.624Z,1.90
2018-12-18T22:49:39.720Z,1.80
2018-12-18T22:52:07.839Z,1.80
2018-12-18T22:54:35.958Z,1.80
2018-12-18T22:57:04.093Z,1.80
2018-12-18T22:59:32.319Z,1.70
2018-12-18T23:02:02.496Z,1.70
2018-12-18T23:04:30.764Z,1.80
2018-12-18T23:06:58.976Z,1.70
2018-12-18T23:09:27.092Z,1.70
2018-12-18T23:11:55.228Z,1.60
2018-12-18T23:14:23.460Z,1.60
2018-12-18T23:16:51.876Z,1.50
2018-12-18T23:19:19.989Z,1.50
2018-12-18T23:21:48.107Z,1.50
2018-12-18T23:24:16.275Z,1.60
2018-12-18T23:26:44.347Z,1.60
2018-12-18T23:29:12.524Z,1.60
2018-12-18T23:31:40.708Z,1.50
2018-12-18T23:34:08.869Z,1.40
2018-12-18T23:36:37.331Z,1.40
2018-12-18T23:39:07.726Z,1.50
2018-12-18T23:41:36.693Z,1.40
2018-12-18T23:44:05.027Z,1.40
2018-12-18T23:46:33.143Z,1.40
2018-12-18T23:49:01.280Z,1.50
2018-12-18T23:51:29.498Z,1.40
2018-12-18T23:53:57.568Z,1.40
2018-12-18T23:56:25.700Z,1.30
2018-12-18T23:58:53.863Z,1.40
